Time;durP1;ratioP1;P1;durP2;ratioP2;P2;SDS_P1;SDS_P2;PMS_P1;PMS_P2;Temp;Humidity;BMP_temperature;BMP_pressure;BME280_temperature;BME280_humidity;BME280_pressure;Samples;Min_cycle;Max_cycle;Signal;HPM_P1;HPM_P2
2021/03/05 05:59:26;;;;;;;;;;;;;;;5.85;100.00;97124.56;1665919;77;20301;-63
2021/03/05 06:01:54;;;;;;;;;;;;;;;5.93;99.92;97123.45;1648937;83;20531;-63
2021/03/05 06:04:23;;;;;;;;;;;;;;;5.95;100.00;97121.92;1660712;84;20519;-63
2021/03/05 06:06:52;;;;;;;;;;;;;;;5.95;100.00;97118.00;1666348;84;21931;-64
2021/03/05 06:09:20;;;;;;;;;;;;;;;6.00;100.00;97124.62;1679678;84;20614;-65
2021/03/05 06:11:48;;;;;;;;;;;;;;;6.05;100.00;97128.11;1660056;84;20403;-62
2021/03/05 06:14:17;;;;;;;;;;;;;;;6.11;99.72;97131.12;1680792;83;20600;-61
2021/03/05 06:16:58;;;;;;;;;;;;;;;6.19;99.19;97132.59;1674752;85;20623;-61
2021/03/05 06:19:27;;;;;;;;;;;;;;;6.24;98.61;97128.76;1660811;84;20943;-63
2021/03/05 06:21:56;;;;;;;;;;;;;;;6.27;98.96;97125.16;1673068;84;20509;-63
2021/03/05 06:24:24;;;;;;;;;;;;;;;6.30;98.72;97120.00;1690398;83;20553;-62
2021/03/05 06:26:59;;;;;;;;;;;;;;;6.33;98.79;97123.46;1653549;84;20490;-63
2021/03/05 06:29:40;;;;;;;;;;;;;;;6.41;98.45;97128.83;1675259;84;20742;-68
2021/03/05 06:32:09;;;;;;;;;;;;;;;6.47;97.64;97130.50;1668459;83;22185;-65
2021/03/05 06:34:51;;;;;;;;;;;;;;;6.45;97.50;97133.34;1663851;85;20613;-65
2021/03/05 06:37:24;;;;;;;;;;;;;;;6.50;97.49;97144.38;1664905;83;20632;-67
2021/03/05 06:40:03;;;;;;;;;;;;;;;6.56;97.16;97160.40;1674738;84;20519;-64
2021/03/05 06:42:35;;;;;;;;;;;;;;;6.57;97.00;97160.69;1673802;83;20797;-62
2021/03/05 06:45:10;;;;;;;;;;;;;;;6.61;96.79;97161.82;1669796;85;22380;-62
2021/03/05 06:47:38;;;;;;;;;;;;;;;6.61;96.56;97161.31;1677821;83;20617;-62
2021/03/05 06:50:21;;;;;;;;;;;;;;;6.60;96.87;97150.58;1675043;83;20577;-63
2021/03/05 06:52:49;;;;;;;;;;;;;;;6.63;97.21;97140.16;1672011;84;20592;-66
2021/03/05 06:55:17;;;;;;;;;;;;;;;6.63;97.21;97144.88;1677785;83;20758;-63
2021/03/05 06:57:44;;;;;;;;;;;;;;;6.67;97.81;97149.13;1677448;83;21992;-59
2021/03/05 07:00:17;;;;;;;;;;;;;;;6.75;97.71;97151.37;1666312;84;20605;-60
2021/03/05 07:02:45;;;;;;;;;;;;;;;6.84;97.06;97157.01;1661619;84;20504;-64
2021/03/05 07:05:16;;;;;;;;;;;;;;;6.89;96.88;97161.00;1660180;84;20485;-61
2021/03/05 07:07:44;;;;;;;;;;;;;;;6.94;96.82;97162.39;1672888;83;20587;-63
2021/03/05 07:10:12;;;;;;;;;;;;;;;6.99;96.10;97161.95;1684801;83;22101;-63
2021/03/05 07:13:00;;;;;;;;;;;;;;;7.06;95.70;97160.49;1653449;84;20538;-61
2021/03/05 07:15:30;;;;;;;;;;;;;;;7.16;95.85;97178.17;1673103;83;20553;-61
2021/03/05 07:17:59;;;;;;;;;;;;;;;7.24;95.46;97187.73;1679615;84;20538;-61
2021/03/05 07:20:28;;;;;;;;;;;;;;;7.29;93.66;97181.27;1654519;84;20543;-60
2021/03/05 07:22:57;;;;;;;;;;;;;;;7.28;93.23;97185.41;1655651;85;21958;-60
2021/03/05 07:25:27;;;;;;;;;;;;;;;7.25;92.82;97191.13;1662032;84;20596;-64
2021/03/05 07:27:55;;;;;;;;;;;;;;;7.18;93.27;97189.19;1655790;84;20211;-63
2021/03/05 07:30:25;;;;;;;;;;;;;;;7.12;94.49;97201.38;1595090;88;20362;-64
2021/03/05 07:32:53;;;;;;;;;;;;;;;7.05;94.70;97198.13;1629158;87;20577;-65
2021/03/05 07:35:24;;;;;;;;;;;;;;;6.97;95.98;97198.51;1629107;85;22137;-66
2021/03/05 07:38:03;;;;;;;;;;;;;;;6.93;96.38;97198.17;1627158;86;20493;-65
2021/03/05 07:40:31;;;;;;;;;;;;;;;6.91;96.33;97199.45;1632889;86;20442;-67
2021/03/05 07:42:59;;;;;;;;;;;;;;;6.89;95.84;97208.81;1638776;86;20510;-63
2021/03/05 07:45:28;;;;;;;;;;;;;;;6.86;96.07;97204.56;1635508;85;20521;-65
2021/03/05 07:47:56;;;;;;;;;;;;;;;6.82;96.63;97217.81;1662129;84;22351;-62
2021/03/05 07:50:25;;;;;;;;;;;;;;;6.78;92.66;97219.30;1669066;84;20502;-66
2021/03/05 07:52:58;;;;;;;;;;;;;;;6.63;87.53;97228.42;1670348;83;20505;-62
2021/03/05 07:55:37;;;;;;;;;;;;;;;6.43;84.43;97238.48;1674359;84;20487;-63
2021/03/05 07:58:06;;;;;;;;;;;;;;;6.18;83.61;97241.87;1661073;83;20798;-64
2021/03/05 08:00:50;;;;;;;;;;;;;;;5.90;83.81;97235.27;1670975;85;20964;-64
2021/03/05 08:03:23;;;;;;;;;;;;;;;5.67;85.02;97232.11;1685379;83;20535;-62
2021/03/05 08:05:50;;;;;;;;;;;;;;;5.45;85.22;97275.65;1682245;83;20414;-66
2021/03/05 08:08:22;;;;;;;;;;;;;;;5.19;85.53;97260.92;1674240;84;20621;-64
2021/03/05 08:11:03;;;;;;;;;;;;;;;5.02;87.09;97274.55;1673939;84;20597;-63
2021/03/05 08:13:49;;;;;;;;;;;;;;;4.89;88.80;97285.14;1669041;85;22014;-63
2021/03/05 08:16:32;;;;;;;;;;;;;;;4.81;88.33;97285.95;1669978;84;20504;-64
2021/03/05 08:19:16;;;;;;;;;;;;;;;4.76;90.26;97266.27;1658418;84;20505;-63
2021/03/05 08:21:58;;;;;;;;;;;;;;;4.76;89.97;97267.56;1656835;83;20498;-64
2021/03/05 08:24:29;;;;;;;;;;;;;;;4.69;89.47;97270.25;1666226;83;20794;-63
2021/03/05 08:27:07;;;;;;;;;;;;;;;4.62;87.43;97289.86;1673639;83;20714;-66
2021/03/05 08:30:03;;;;;;;;;;;;;;;4.52;86.93;97282.28;1656696;84;20601;-63
2021/03/05 08:32:37;;;;;;;;;;;;;;;4.44;86.67;97287.77;1671767;83;20423;-64
2021/03/05 08:35:11;;;;;;;;;;;;;;;4.32;85.63;97296.28;1673593;83;20509;-66
2021/03/05 08:37:41;;;;;;;;;;;;;;;4.25;85.74;97292.95;1685997;83;20665;-66
2021/03/05 08:40:21;;;;;;;;;;;;;;;4.21;86.71;97299.61;1667132;84;21794;-63
2021/03/05 08:42:55;;;;;;;;;;;;;;;4.17;87.92;97292.46;1661796;84;20497;-64
2021/03/05 08:45:30;;;;;;;;;;;;;;;4.14;87.96;97302.78;1671437;83;20300;-68
2021/03/05 08:48:01;;;;;;;;;;;;;;;4.12;88.73;97301.39;1667185;83;20584;-64
2021/03/05 08:50:34;;;;;;;;;;;;;;;4.10;88.95;97309.93;1666820;83;20494;-64
2021/03/05 08:53:13;;;;;;;;;;;;;;;4.07;88.75;97309.84;1671306;83;21933;-64
2021/03/05 08:55:43;;;;;;;;;;;;;;;4.03;89.36;97311.30;1668136;83;20436;-65
2021/03/05 08:58:17;;;;;;;;;;;;;;;3.98;89.77;97312.92;1663761;84;20598;-65
2021/03/05 09:00:45;;;;;;;;;;;;;;;3.87;89.29;97315.72;1659591;84;20710;-66
2021/03/05 09:03:16;;;;;;;;;;;;;;;3.80;90.53;97333.17;1670585;84;20753;-70
2021/03/05 09:05:50;;;;;;;;;;;;;;;3.74;91.51;97333.52;1665643;84;22438;-64
2021/03/05 09:08:24;;;;;;;;;;;;;;;3.70;91.20;97329.73;1667565;85;20498;-64
2021/03/05 09:10:56;;;;;;;;;;;;;;;3.63;91.34;97319.09;1700380;83;20512;-65
2021/03/05 09:13:27;;;;;;;;;;;;;;;3.57;92.37;97323.84;1679848;83;20564;-65
2021/03/05 09:15:57;;;;;;;;;;;;;;;3.55;92.31;97331.84;1673730;84;20786;-63
2021/03/05 09:18:33;;;;;;;;;;;;;;;3.52;91.61;97338.27;1680384;84;21865;-63
2021/03/05 09:21:03;;;;;;;;;;;;;;;3.50;92.22;97327.78;1671067;84;20483;-63
2021/03/05 09:23:33;;;;;;;;;;;;;;;3.44;90.72;97327.33;1681296;83;20478;-64
2021/03/05 09:26:09;;;;;;;;;;;;;;;3.45;91.15;97331.52;1685355;83;20491;-64
2021/03/05 09:28:39;;;;;;;;;;;;;;;3.47;91.56;97339.88;1675224;83;20618;-64
2021/03/05 09:31:13;;;;;;;;;;;;;;;3.50;91.40;97336.88;1682733;83;22150;-65
2021/03/05 09:33:43;;;;;;;;;;;;;;;3.53;91.44;97342.44;1675302;84;20605;-65
2021/03/05 09:36:13;;;;;;;;;;;;;;;3.57;91.62;97352.42;1677473;83;20490;-65
2021/03/05 09:38:42;;;;;;;;;;;;;;;3.60;90.98;97355.91;1680613;83;20342;-69
2021/03/05 09:41:14;;;;;;;;;;;;;;;3.65;90.17;97358.67;1664605;84;20692;-65
2021/03/05 09:43:42;;;;;;;;;;;;;;;3.62;89.69;97361.17;1671866;83;22007;-65
2021/03/05 09:46:23;;;;;;;;;;;;;;;3.61;90.23;97366.57;1666622;83;20887;-64
2021/03/05 09:48:53;;;;;;;;;;;;;;;3.55;90.06;97363.02;1662135;84;20489;-64
2021/03/05 09:51:22;;;;;;;;;;;;;;;3.58;91.56;97363.11;1662168;84;20487;-74
2021/03/05 09:53:52;;;;;;;;;;;;;;;3.60;91.55;97368.40;1660040;84;20876;-65
2021/03/05 09:56:23;;;;;;;;;;;;;;;3.60;91.11;97361.91;1650670;84;21877;-65
2021/03/05 09:58:55;;;;;;;;;;;;;;;3.59;90.07;97368.10;1667541;83;20483;-68
2021/03/05 10:01:26;;;;;;;;;;;;;;;3.51;89.44;97356.16;1666250;83;20490;-67
2021/03/05 10:03:58;;;;;;;;;;;;;;;3.47;90.53;97356.77;1662503;83;20519;-63
2021/03/05 10:06:27;;;;;;;;;;;;;;;3.45;91.99;97364.80;1663721;83;20669;-63
2021/03/05 10:09:05;;;;;;;;;;;;;;;3.47;91.84;97367.95;1651764;86;21859;-63
2021/03/05 10:11:38;;;;;;;;;;;;;;;3.49;91.03;97380.74;1658136;85;20432;-62
2021/03/05 10:14:07;;;;;;;;;;;;;;;3.51;90.44;97384.73;1642391;85;20591;-64
2021/03/05 10:16:36;;;;;;;;;;;;;;;3.52;90.24;97385.53;1600067;87;20238;-63
2021/03/05 10:19:14;;;;;;;;;;;;;;;3.52;90.02;97394.63;1601863;87;20508;-63
2021/03/05 10:21:47;;;;;;;;;;;;;;;3.52;89.50;97386.83;1610917;86;21785;-64
2021/03/05 10:24:19;;;;;;;;;;;;;;;3.53;90.21;97390.50;1601484;87;20598;-66
2021/03/05 10:27:21;;;;;;;;;;;;;;;3.57;90.14;97397.39;1602545;87;20611;-65
2021/03/05 10:30:04;;;;;;;;;;;;;;;3.57;93.16;97400.48;1545030;90;20646;-64
2021/03/05 10:32:39;;;;;;;;;;;;;;;3.61;90.68;97401.65;1595105;87;20483;-61
2021/03/05 10:35:14;;;;;;;;;;;;;;;3.62;90.15;97409.74;1608247;86;21908;-63
2021/03/05 10:37:47;;;;;;;;;;;;;;;3.62;90.12;97411.05;1623702;86;20599;-61
2021/03/05 10:40:18;;;;;;;;;;;;;;;3.57;89.67;97412.98;1620119;87;20597;-60
2021/03/05 10:42:46;;;;;;;;;;;;;;;3.49;90.63;97408.02;1594074;87;20610;-62
2021/03/05 10:45:15;;;;;;;;;;;;;;;3.48;91.43;97411.62;1609577;88;20642;-61
2021/03/05 10:47:42;;;;;;;;;;;;;;;3.46;91.83;97411.02;1612581;87;21866;-59
2021/03/05 10:50:12;;;;;;;;;;;;;;;3.44;91.75;97418.25;1663098;84;20515;-60
2021/03/05 10:52:39;;;;;;;;;;;;;;;3.37;91.83;97420.08;1668080;84;20410;-60
2021/03/05 10:55:08;;;;;;;;;;;;;;;3.35;93.15;97424.17;1670095;84;20496;-64
2021/03/05 10:57:39;;;;;;;;;;;;;;;3.33;92.34;97424.08;1681797;83;20564;-62
2021/03/05 11:00:08;;;;;;;;;;;;;;;3.30;92.53;97417.52;1670760;83;22116;-62
2021/03/05 11:02:38;;;;;;;;;;;;;;;3.28;92.94;97413.02;1681620;83;20577;-63
2021/03/05 11:05:08;;;;;;;;;;;;;;;3.28;92.97;97417.41;1658087;83;20635;-62
2021/03/05 11:07:36;;;;;;;;;;;;;;;3.28;93.61;97418.71;1640201;85;20591;-61
2021/03/05 11:10:05;;;;;;;;;;;;;;;3.28;93.52;97416.11;1685303;83;20847;-64
2021/03/05 11:12:32;;;;;;;;;;;;;;;3.31;93.91;97412.61;1643827;85;21880;-64
2021/03/05 11:15:08;;;;;;;;;;;;;;;3.32;93.95;97421.17;1683338;83;20486;-63
2021/03/05 11:17:50;;;;;;;;;;;;;;;3.34;94.04;97421.77;1707131;81;20490;-64
2021/03/05 11:20:18;;;;;;;;;;;;;;;3.35;94.09;97411.19;1748184;81;20486;-64
2021/03/05 11:22:46;;;;;;;;;;;;;;;3.38;94.25;97406.09;1678561;83;20597;-63
2021/03/05 11:25:14;;;;;;;;;;;;;;;3.40;93.89;97406.66;1680080;84;20919;-62
2021/03/05 11:27:42;;;;;;;;;;;;;;;3.42;93.76;97406.76;1699275;83;20493;-65
2021/03/05 11:30:11;;;;;;;;;;;;;;;3.45;92.49;97406.35;1710075;82;20483;-67
2021/03/05 11:32:38;;;;;;;;;;;;;;;3.48;93.26;97405.92;1710727;82;20682;-63
2021/03/05 11:35:14;;;;;;;;;;;;;;;3.52;93.63;97412.31;1706321;83;20786;-67
2021/03/05 11:37:42;;;;;;;;;;;;;;;3.57;93.38;97418.67;1699357;83;20744;-65
2021/03/05 11:40:12;;;;;;;;;;;;;;;3.60;93.04;97420.37;1730996;81;20631;-63
2021/03/05 11:42:45;;;;;;;;;;;;;;;3.62;92.63;97418.84;1719029;81;20504;-66
2021/03/05 11:45:15;;;;;;;;;;;;;;;3.62;91.70;97413.64;1733188;81;20252;-63
2021/03/05 11:47:43;;;;;;;;;;;;;;;3.64;92.45;97421.53;1741431;81;20549;-65
2021/03/05 11:50:13;;;;;;;;;;;;;;;3.67;92.97;97421.62;1725737;81;21913;-62
2021/03/05 11:52:44;;;;;;;;;;;;;;;3.67;89.91;97425.53;1686844;83;20637;-63
2021/03/05 11:55:12;;;;;;;;;;;;;;;3.61;88.66;97419.84;1667700;84;20673;-65
2021/03/05 11:57:40;;;;;;;;;;;;;;;3.52;88.96;97429.20;1706398;83;20520;-66
2021/03/05 12:00:09;;;;;;;;;;;;;;;3.44;89.17;97427.34;1700827;81;20565;-66
2021/03/05 12:02:37;;;;;;;;;;;;;;;3.34;89.44;97417.87;1738931;80;21722;-66
2021/03/05 12:05:06;;;;;;;;;;;;;;;3.29;89.59;97418.51;1727866;81;20222;-67
2021/03/05 12:07:34;;;;;;;;;;;;;;;3.20;91.10;97418.44;1731370;81;20482;-67
2021/03/05 12:10:03;;;;;;;;;;;;;;;3.18;91.79;97428.23;1736359;80;20488;-67
2021/03/05 12:12:31;;;;;;;;;;;;;;;3.16;92.13;97426.36;1736356;80;20606;-68
2021/03/05 12:15:00;;;;;;;;;;;;;;;3.17;92.59;97438.84;1736525;80;21190;-67
2021/03/05 12:17:28;;;;;;;;;;;;;;;3.17;92.53;97437.02;1739555;80;20608;-68
2021/03/05 12:19:57;;;;;;;;;;;;;;;3.22;92.41;97432.52;1734423;80;20234;-66
2021/03/05 12:22:25;;;;;;;;;;;;;;;3.24;92.19;97437.02;1752953;79;20628;-66
2021/03/05 12:24:53;;;;;;;;;;;;;;;3.27;90.99;97443.88;1734171;80;20828;-65
2021/03/05 12:27:23;;;;;;;;;;;;;;;3.27;90.96;97441.28;1741760;80;21924;-66
2021/03/05 12:29:51;;;;;;;;;;;;;;;3.24;90.88;97441.71;1737180;80;20409;-65
2021/03/05 12:32:40;;;;;;;;;;;;;;;3.16;90.62;97448.42;1751622;80;20520;-67
2021/03/05 12:35:09;;;;;;;;;;;;;;;3.09;90.83;97449.75;1669380;84;20545;-65
2021/03/05 12:37:38;;;;;;;;;;;;;;;3.03;91.35;97451.84;1667216;84;20606;-63
2021/03/05 12:40:08;;;;;;;;;;;;;;;2.98;91.78;97453.45;1678586;83;22105;-65
2021/03/05 12:42:36;;;;;;;;;;;;;;;2.94;92.61;97456.98;1670082;84;20537;-65
2021/03/05 12:45:05;;;;;;;;;;;;;;;2.91;92.44;97463.05;1670287;84;20513;-63
2021/03/05 12:47:32;;;;;;;;;;;;;;;2.88;92.86;97462.95;1667306;84;20525;-68
2021/03/05 12:50:03;;;;;;;;;;;;;;;2.85;93.77;97465.97;1674566;83;20651;-63
2021/03/05 12:52:31;;;;;;;;;;;;;;;2.84;94.65;97461.77;1674387;84;20713;-64
2021/03/05 12:55:00;;;;;;;;;;;;;;;2.87;96.63;97465.77;1678383;83;20545;-64
2021/03/05 12:57:28;;;;;;;;;;;;;;;2.89;97.80;97474.93;1676235;84;20528;-64
2021/03/05 12:59:56;;;;;;;;;;;;;;;2.93;97.26;97476.64;1678100;84;20552;-63
2021/03/05 13:02:26;;;;;;;;;;;;;;;2.98;97.28;97484.61;1677245;82;20790;-67
2021/03/05 13:04:54;;;;;;;;;;;;;;;3.00;96.36;97484.71;1693386;84;21944;-67
2021/03/05 13:07:22;;;;;;;;;;;;;;;3.06;96.05;97485.69;1685647;82;20576;-65
2021/03/05 13:09:50;;;;;;;;;;;;;;;3.04;95.34;97491.08;1692812;84;20545;-64
2021/03/05 13:12:18;;;;;;;;;;;;;;;3.05;95.35;97490.58;1681748;84;21060;-63
2021/03/05 13:14:45;;;;;;;;;;;;;;;3.04;94.40;97492.87;1687946;82;20486;-67
2021/03/05 13:17:13;;;;;;;;;;;;;;;3.03;94.26;97492.58;1692100;84;20967;-63
2021/03/05 13:19:41;;;;;;;;;;;;;;;3.03;94.44;97498.56;1688274;84;20411;-65
2021/03/05 13:22:10;;;;;;;;;;;;;;;3.05;94.29;97499.17;1691245;83;20702;-63
2021/03/05 13:24:37;;;;;;;;;;;;;;;3.06;94.16;97513.75;1680746;84;20461;-67
2021/03/05 13:27:05;;;;;;;;;;;;;;;3.06;93.88;97510.36;1692618;84;21079;-61
2021/03/05 13:29:34;;;;;;;;;;;;;;;3.05;93.30;97505.66;1687313;82;20733;-63
2021/03/05 13:32:02;;;;;;;;;;;;;;;3.05;92.94;97512.65;1679977;84;20640;-65
2021/03/05 13:34:30;;;;;;;;;;;;;;;3.02;93.19;97510.47;1624353;87;20507;-63
2021/03/05 13:36:58;;;;;;;;;;;;;;;2.99;93.72;97510.38;1659203;84;20599;-65
2021/03/05 13:39:26;;;;;;;;;;;;;;;2.99;93.57;97510.38;1623822;86;20529;-62
2021/03/05 13:41:54;;;;;;;;;;;;;;;2.96;92.96;97509.95;1660250;84;20955;-62
2021/03/05 13:44:22;;;;;;;;;;;;;;;2.89;93.13;97512.56;1672493;84;20671;-63
2021/03/05 13:46:50;;;;;;;;;;;;;;;2.87;93.15;97513.29;1626426;86;20501;-63
2021/03/05 13:49:18;;;;;;;;;;;;;;;2.83;93.75;97512.08;1616946;87;20585;-62
2021/03/05 13:51:46;;;;;;;;;;;;;;;2.81;93.93;97514.06;1677299;84;20623;-61
2021/03/05 13:54:15;;;;;;;;;;;;;;;2.81;94.52;97524.45;1678479;84;20959;-61
2021/03/05 13:56:43;;;;;;;;;;;;;;;2.78;94.36;97524.87;1697099;84;20607;-61
